createdAt,value
2022-10-01T00:02:14.470Z,98128.78
2022-10-01T00:04:41.054Z,98128.31
2022-10-01T00:07:10.933Z,98131.75
2022-10-01T00:09:38.914Z,98137.44
2022-10-01T00:12:05.817Z,98143.25
2022-10-01T00:14:32.759Z,98146.69
2022-10-01T00:16:59.398Z,98143.25
2022-10-01T00:19:26.370Z,98137.94
2022-10-01T00:21:52.924Z,98139.22
2022-10-01T00:24:19.536Z,98144.19
2022-10-01T00:26:46.666Z,98148.69
2022-10-01T00:29:14.819Z,98148.34
2022-10-01T00:31:42.358Z,98149.16
2022-10-01T00:34:12.769Z,98151.59
2022-10-01T00:36:39.507Z,98147.56
2022-10-01T00:39:06.098Z,98145.56
2022-10-01T00:41:34.972Z,98149.50
2022-10-01T00:44:23.293Z,98152.16
2022-10-01T00:46:51.399Z,98152.38
2022-10-01T00:49:22.109Z,98152.72
2022-10-01T00:51:52.617Z,98147.88
2022-10-01T00:54:24.109Z,98149.72
2022-10-01T00:56:54.118Z,98158.47
2022-10-01T00:59:21.090Z,98162.50
2022-10-01T01:01:48.783Z,98166.31
2022-10-01T01:04:16.808Z,98170.81
2022-10-01T01:06:57.548Z,98170.03
2022-10-01T01:09:30.187Z,98172.88
2022-10-01T01:12:05.342Z,98171.84
2022-10-01T01:14:48.180Z,98174.25
2022-10-01T01:17:25.163Z,98168.16
2022-10-01T01:20:11.602Z,98180.28
2022-10-01T01:22:50.067Z,98179.81
2022-10-01T01:25:19.847Z,98184.56
2022-10-01T01:28:00.231Z,98186.63
2022-10-01T01:30:27.131Z,98185.00
2022-10-01T01:33:02.386Z,98183.75
2022-10-01T01:35:37.586Z,98184.31
2022-10-01T01:38:09.294Z,98178.91
2022-10-01T01:40:39.390Z,98185.25
2022-10-01T01:43:11.019Z,98181.81
2022-10-01T01:45:40.387Z,98177.53
2022-10-01T01:48:10.007Z,98179.59
2022-10-01T01:50:51.801Z,98184.91
2022-10-01T01:53:20.233Z,98182.50
2022-10-01T01:55:49.342Z,98183.63
2022-10-01T01:58:18.708Z,98182.59
2022-10-01T02:00:52.285Z,98174.09
2022-10-01T02:03:22.107Z,98181.56
2022-10-01T02:06:13.308Z,98176.50
2022-10-01T02:08:51.190Z,98172.56
2022-10-01T02:11:38.161Z,98162.75
2022-10-01T02:14:20.591Z,98169.91
2022-10-01T02:16:56.329Z,98170.47
2022-10-01T02:19:44.444Z,98178.13
2022-10-01T02:22:17.583Z,98181.81
2022-10-01T02:24:57.183Z,98185.06
2022-10-01T02:27:27.199Z,98183.13
2022-10-01T02:29:57.475Z,98178.84
2022-10-01T02:32:24.322Z,98177.22
2022-10-01T02:34:52.886Z,98181.50
2022-10-01T02:37:24.371Z,98180.72
2022-10-01T02:39:52.593Z,98171.47
2022-10-01T02:42:21.753Z,98174.69
2022-10-01T02:44:51.297Z,98172.84
2022-10-01T02:47:21.554Z,98175.72
2022-10-01T02:49:49.766Z,98172.63
2022-10-01T02:52:38.833Z,98179.19
2022-10-01T02:55:12.191Z,98168.25
2022-10-01T02:57:39.040Z,98171.25
2022-10-01T03:00:09.476Z,98175.50
2022-10-01T03:02:36.427Z,98170.50
2022-10-01T03:05:03.917Z,98172.03
2022-10-01T03:07:34.575Z,98166.97
2022-10-01T03:10:05.947Z,98159.25
2022-10-01T03:12:36.187Z,98160.63
2022-10-01T03:15:03.604Z,98157.63
2022-10-01T03:17:30.236Z,98160.03
2022-10-01T03:19:56.783Z,98165.03
2022-10-01T03:22:24.194Z,98169.63
2022-10-01T03:24:52.171Z,98166.06
2022-10-01T03:27:19.966Z,98170.25
2022-10-01T03:29:47.241Z,98170.47
2022-10-01T03:32:16.912Z,98177.47
2022-10-01T03:34:44.190Z,98171.63
2022-10-01T03:37:10.857Z,98170.78
2022-10-01T03:39:37.441Z,98167.81
2022-10-01T03:42:05.865Z,98169.16
2022-10-01T03:44:33.757Z,98166.06
2022-10-01T03:47:00.695Z,98163.88
2022-10-01T03:49:27.953Z,98168.38
2022-10-01T03:51:54.648Z,98163.66
2022-10-01T03:54:21.571Z,98161.47
2022-10-01T03:56:48.909Z,98162.84
2022-10-01T03:59:15.539Z,98164.69
2022-10-01T04:01:42.198Z,98158.56
2022-10-01T04:04:09.250Z,98164.69
2022-10-01T04:06:36.155Z,98157.78
2022-10-01T04:09:03.148Z,98170.00
2022-10-01T04:11:30.256Z,98161.00
2022-10-01T04:13:58.102Z,98156.03
2022-10-01T04:16:25.294Z,98161.31
2022-10-01T04:18:52.103Z,98151.44
2022-10-01T04:21:18.727Z,98152.22
2022-10-01T04:23:45.589Z,98159.28
2022-10-01T04:26:12.162Z,98148.34
2022-10-01T04:28:38.791Z,98142.94
2022-10-01T04:31:20.800Z,98136.25
2022-10-01T04:33:47.530Z,98138.75
2022-10-01T04:36:14.393Z,98141.41
2022-10-01T04:38:40.953Z,98151.00
2022-10-01T04:41:09.254Z,98146.16
2022-10-01T04:43:36.921Z,98150.09
2022-10-01T04:46:03.552Z,98149.63
2022-10-01T04:48:30.229Z,98133.38
2022-10-01T04:50:56.959Z,98128.88
2022-10-01T04:53:23.679Z,98134.66
2022-10-01T04:55:50.230Z,98149.97
2022-10-01T04:58:18.687Z,98160.03
2022-10-01T05:00:45.709Z,98156.00
2022-10-01T05:03:12.592Z,98176.38
2022-10-01T05:05:39.227Z,98183.41
2022-10-01T05:08:05.836Z,98175.00
2022-10-01T05:10:32.558Z,98180.66
2022-10-01T05:13:01.316Z,98175.34
2022-10-01T05:15:28.922Z,98173.75
2022-10-01T05:17:56.234Z,98166.50
2022-10-01T05:20:26.670Z,98164.75
2022-10-01T05:22:54.444Z,98165.25
2022-10-01T05:25:21.155Z,98160.63
2022-10-01T05:27:47.802Z,98157.06
2022-10-01T05:30:21.879Z,98143.94
2022-10-01T05:33:04.643Z,98147.13
2022-10-01T05:35:31.662Z,98144.72
2022-10-01T05:37:59.978Z,98142.31
2022-10-01T05:40:28.525Z,98140.38
2022-10-01T05:42:58.370Z,98145.66
2022-10-01T05:45:27.893Z,98145.91
2022-10-01T05:48:03.921Z,98152.66
2022-10-01T05:50:32.905Z,98154.88
2022-10-01T05:53:00.857Z,98158.31
2022-10-01T05:55:31.979Z,98153.38
2022-10-01T05:58:02.322Z,98153.38
2022-10-01T06:00:29.960Z,98149.69
2022-10-01T06:02:57.927Z,98152.34
2022-10-01T06:05:25.338Z,98144.25
2022-10-01T06:07:52.093Z,98139.09
2022-10-01T06:10:18.776Z,98146.81
2022-10-01T06:12:46.157Z,98152.09
2022-10-01T06:15:13.219Z,98154.16
2022-10-01T06:17:44.892Z,98151.50
2022-10-01T06:20:13.706Z,98138.38
2022-10-01T06:22:42.548Z,98139.75
2022-10-01T06:25:11.099Z,98139.03
2022-10-01T06:27:37.791Z,98140.41
2022-10-01T06:30:05.637Z,98133.59
2022-10-01T06:32:35.084Z,98131.09
2022-10-01T06:35:02.852Z,98139.13
2022-10-01T06:37:29.782Z,98133.16
2022-10-01T06:39:56.452Z,98134.28
2022-10-01T06:42:23.281Z,98141.31
2022-10-01T06:44:49.853Z,98136.06
2022-10-01T06:47:16.436Z,98127.28
2022-10-01T06:49:47.283Z,98139.69
2022-10-01T06:52:29.714Z,98137.94
2022-10-01T06:54:56.425Z,98144.94
2022-10-01T06:57:22.973Z,98139.56
2022-10-01T06:59:49.576Z,98148.75
2022-10-01T07:02:23.562Z,98151.50
2022-10-01T07:04:50.196Z,98151.09
2022-10-01T07:07:16.844Z,98153.34
2022-10-01T07:09:43.457Z,98167.00
2022-10-01T07:12:13.361Z,98173.38
2022-10-01T07:14:43.158Z,98170.47
2022-10-01T07:17:09.691Z,98170.94
2022-10-01T07:19:36.267Z,98177.63
2022-10-01T07:22:02.875Z,98168.78
2022-10-01T07:24:29.454Z,98171.28
2022-10-01T07:26:56.095Z,98173.00
2022-10-01T07:29:24.238Z,98168.81
2022-10-01T07:31:52.032Z,98172.84
2022-10-01T07:34:18.615Z,98180.00
2022-10-01T07:36:45.346Z,98178.69
2022-10-01T07:39:12.786Z,98183.94
2022-10-01T07:41:39.574Z,98176.38
2022-10-01T07:44:06.145Z,98179.34
2022-10-01T07:46:34.857Z,98173.16
2022-10-01T07:49:01.612Z,98172.81
2022-10-01T07:51:29.021Z,98173.44
2022-10-01T07:53:55.651Z,98178.75
2022-10-01T07:56:22.496Z,98186.50
2022-10-01T07:58:49.113Z,98193.66
2022-10-01T08:01:16.075Z,98185.94
2022-10-01T08:03:42.694Z,98185.50
2022-10-01T08:06:11.857Z,98181.16
2022-10-01T08:08:38.447Z,98175.59
2022-10-01T08:11:07.162Z,98177.53
2022-10-01T08:13:35.013Z,98168.97
2022-10-01T08:16:06.114Z,98173.31
2022-10-01T08:18:33.901Z,98172.66
2022-10-01T08:21:02.158Z,98170.06
2022-10-01T08:23:30.151Z,98175.94
2022-10-01T08:26:01.874Z,98178.22
2022-10-01T08:28:29.854Z,98173.25
2022-10-01T08:30:56.763Z,98180.16
2022-10-01T08:33:23.998Z,98174.22
2022-10-01T08:35:50.781Z,98176.53
2022-10-01T08:38:19.700Z,98176.44
2022-10-01T08:40:51.127Z,98166.81
2022-10-01T08:43:18.635Z,98171.63
2022-10-01T08:45:51.086Z,98162.81
2022-10-01T08:48:38.524Z,98166.00
2022-10-01T08:51:15.882Z,98177.34
2022-10-01T08:53:50.652Z,98168.50
2022-10-01T08:56:24.770Z,98166.97
2022-10-01T08:58:58.952Z,98151.22
2022-10-01T09:01:27.127Z,98160.56
2022-10-01T09:03:54.218Z,98159.28
2022-10-01T09:06:25.464Z,98151.56
2022-10-01T09:08:54.679Z,98156.34
2022-10-01T09:11:46.972Z,98162.75
2022-10-01T09:14:33.059Z,98158.69
2022-10-01T09:17:34.899Z,98150.47
2022-10-01T09:20:06.657Z,98147.78
2022-10-01T09:22:53.187Z,98139.25
2022-10-01T09:25:22.954Z,98141.88
2022-10-01T09:27:51.966Z,98140.09
2022-10-01T09:30:21.954Z,98145.91
2022-10-01T09:32:55.632Z,98137.97
2022-10-01T09:35:41.794Z,98135.34
2022-10-01T09:38:15.090Z,98125.25
2022-10-01T09:40:52.114Z,98135.13
2022-10-01T09:43:20.395Z,98130.66
2022-10-01T09:45:47.434Z,98130.34
2022-10-01T09:48:23.962Z,98127.69
2022-10-01T09:50:56.451Z,98137.03
2022-10-01T09:53:30.628Z,98142.09
2022-10-01T09:56:03.755Z,98132.25
2022-10-01T09:58:34.908Z,98131.69
2022-10-01T10:01:01.811Z,98132.50
2022-10-01T10:03:30.959Z,98131.44
2022-10-01T10:05:59.962Z,98119.94
2022-10-01T10:08:33.598Z,98109.22
2022-10-01T10:11:03.100Z,98113.28
2022-10-01T10:13:36.091Z,98109.50
2022-10-01T10:16:24.604Z,98120.97
2022-10-01T10:18:52.427Z,98115.09
2022-10-01T10:21:23.304Z,98113.22
2022-10-01T10:23:52.421Z,98113.78
2022-10-01T10:26:25.922Z,98101.25
2022-10-01T10:28:52.481Z,98103.41
2022-10-01T10:31:24.250Z,98101.78
2022-10-01T10:33:57.479Z,98095.91
2022-10-01T10:36:30.557Z,98098.31
2022-10-01T10:38:58.822Z,98097.00
2022-10-01T10:41:27.331Z,98092.22
2022-10-01T10:43:59.281Z,98086.84
2022-10-01T10:46:32.723Z,98084.72
2022-10-01T10:49:16.647Z,98080.19
2022-10-01T10:51:51.469Z,98081.53
2022-10-01T10:54:20.616Z,98079.38
2022-10-01T10:57:00.054Z,98081.81
2022-10-01T10:59:27.022Z,98071.41
2022-10-01T11:01:54.124Z,98077.81
2022-10-01T11:04:25.869Z,98081.00
2022-10-01T11:06:55.935Z,98071.13
2022-10-01T11:09:27.723Z,98064.19
2022-10-01T11:12:09.317Z,98049.22
2022-10-01T11:14:48.985Z,98040.41
2022-10-01T11:17:18.654Z,98035.34
2022-10-01T11:20:19.865Z,98029.72
2022-10-01T11:23:16.443Z,98019.06
2022-10-01T11:25:50.788Z,98015.84
2022-10-01T11:28:18.604Z,98024.09
2022-10-01T11:31:01.582Z,98011.28
2022-10-01T11:33:45.109Z,98004.91
2022-10-01T11:36:42.277Z,98003.28
2022-10-01T11:39:16.761Z,97998.22
2022-10-01T11:41:49.322Z,97998.50
2022-10-01T11:44:31.310Z,97996.09
2022-10-01T11:47:17.122Z,97992.63
2022-10-01T11:50:04.755Z,97993.44
2022-10-01T11:52:43.972Z,97987.84
2022-10-01T11:55:35.692Z,97991.84
2022-10-01T11:58:29.301Z,97994.00
2022-10-01T12:01:05.789Z,97992.44
2022-10-01T12:03:41.011Z,97996.19
2022-10-01T12:06:14.792Z,97996.91
2022-10-01T12:08:48.242Z,98003.88
2022-10-01T12:11:17.809Z,97998.84
2022-10-01T12:14:00.559Z,98000.72
2022-10-01T12:16:43.132Z,98014.34
2022-10-01T12:19:19.729Z,98011.94
2022-10-01T12:21:51.841Z,98007.13
2022-10-01T12:24:30.730Z,98014.06
2022-10-01T12:26:57.273Z,98000.19
2022-10-01T12:29:42.375Z,98002.84
2022-10-01T12:32:39.401Z,98000.44
2022-10-01T12:35:07.105Z,98004.19
2022-10-01T12:37:49.442Z,98018.06
2022-10-01T12:40:26.547Z,98009.28
2022-10-01T12:43:20.695Z,98015.13
2022-10-01T12:45:57.285Z,98009.53
2022-10-01T12:48:32.136Z,98017.53
2022-10-01T12:51:26.452Z,98015.63
2022-10-01T12:54:23.469Z,98019.38
2022-10-01T12:57:01.005Z,98017.22
2022-10-01T12:59:40.890Z,98024.22
2022-10-01T13:02:30.391Z,98022.03
2022-10-01T13:05:32.217Z,98015.09
2022-10-01T13:08:33.947Z,98035.09
2022-10-01T13:11:31.064Z,98042.56
2022-10-01T13:13:58.158Z,98038.03
2022-10-01T13:16:39.597Z,98051.06
2022-10-01T13:19:16.579Z,98054.28
2022-10-01T13:21:58.597Z,98059.84
2022-10-01T13:24:40.818Z,98048.09
2022-10-01T13:27:19.926Z,98048.59
2022-10-01T13:29:52.942Z,98029.88
2022-10-01T13:32:37.349Z,98021.03
2022-10-01T13:35:22.734Z,98027.09
2022-10-01T13:37:49.323Z,98012.44
2022-10-01T13:40:31.059Z,98024.94
2022-10-01T13:43:08.119Z,98037.50
2022-10-01T13:45:43.312Z,98038.81
2022-10-01T13:48:12.055Z,98039.25
2022-10-01T13:50:39.900Z,98040.59
2022-10-01T13:53:16.064Z,98024.09
2022-10-01T13:55:45.211Z,98030.91
2022-10-01T13:58:21.466Z,98038.16
2022-10-01T14:00:49.295Z,98032.38
2022-10-01T14:03:38.258Z,98038.53
2022-10-01T14:06:14.195Z,98052.28
2022-10-01T14:08:47.741Z,98051.97
2022-10-01T14:11:33.412Z,98048.16
2022-10-01T14:14:26.739Z,98050.16
2022-10-01T14:16:55.902Z,98048.75
2022-10-01T14:19:26.647Z,98043.25
2022-10-01T14:22:04.629Z,98042.63
2022-10-01T14:25:06.590Z,98034.69
2022-10-01T14:27:38.710Z,98063.16
2022-10-01T14:30:23.373Z,98086.22
2022-10-01T14:33:05.582Z,98088.59
2022-10-01T14:35:33.182Z,98075.41
2022-10-01T14:38:01.565Z,98076.66
2022-10-01T14:40:38.231Z,98085.44
2022-10-01T14:43:23.908Z,98084.59
2022-10-01T14:45:51.561Z,98079.28
2022-10-01T14:48:18.175Z,98069.16
2022-10-01T14:50:49.556Z,98060.94
2022-10-01T14:53:18.732Z,98047.69
2022-10-01T14:55:48.236Z,98042.06
2022-10-01T14:58:25.790Z,98043.75
2022-10-01T15:00:54.303Z,98053.81
2022-10-01T15:03:20.951Z,98064.44
2022-10-01T15:05:49.822Z,98074.50
2022-10-01T15:08:22.978Z,98067.28
2022-10-01T15:10:53.503Z,98068.13
2022-10-01T15:13:25.732Z,98070.22
2022-10-01T15:15:56.302Z,98070.22
2022-10-01T15:18:24.089Z,98068.34
2022-10-01T15:20:58.085Z,98076.13
2022-10-01T15:23:28.833Z,98083.09
2022-10-01T15:25:58.962Z,98077.59
2022-10-01T15:28:31.770Z,98088.19
2022-10-01T15:31:16.884Z,98077.34
2022-10-01T15:33:43.922Z,98087.84
2022-10-01T15:36:17.907Z,98079.81
2022-10-01T15:38:47.813Z,98084.75
2022-10-01T15:41:31.841Z,98077.59
2022-10-01T15:44:03.300Z,98077.47
2022-10-01T15:46:33.403Z,98070.09
2022-10-01T15:49:18.220Z,98079.94
2022-10-01T15:52:18.612Z,98072.16
2022-10-01T15:54:46.024Z,98072.34
2022-10-01T15:57:20.263Z,98078.97
2022-10-01T15:59:48.857Z,98072.81
2022-10-01T16:02:21.309Z,98068.94
2022-10-01T16:04:56.737Z,98066.91
2022-10-01T16:07:30.229Z,98073.19
2022-10-01T16:10:00.570Z,98067.47
2022-10-01T16:12:28.683Z,98073.66
2022-10-01T16:14:57.307Z,98069.41
2022-10-01T16:17:30.955Z,98075.06
2022-10-01T16:20:01.554Z,98074.16
2022-10-01T16:22:34.017Z,98072.72
2022-10-01T16:25:03.978Z,98073.56
2022-10-01T16:27:43.470Z,98078.81
2022-10-01T16:30:18.847Z,98075.75
2022-10-01T16:32:45.946Z,98080.28
2022-10-01T16:35:18.676Z,98077.78
2022-10-01T16:37:48.281Z,98073.19
2022-10-01T16:40:16.388Z,98071.75
2022-10-01T16:42:44.932Z,98069.91
2022-10-01T16:45:16.972Z,98075.75
2022-10-01T16:47:45.166Z,98081.31
2022-10-01T16:50:13.986Z,98076.09
2022-10-01T16:52:40.603Z,98091.41
2022-10-01T16:55:24.891Z,98091.69
2022-10-01T16:57:54.604Z,98087.84
2022-10-01T17:00:23.882Z,98081.41
2022-10-01T17:02:50.869Z,98083.66
2022-10-01T17:05:23.701Z,98078.13
2022-10-01T17:07:50.353Z,98087.47
2022-10-01T17:10:19.191Z,98080.19
2022-10-01T17:12:48.032Z,98077.16
2022-10-01T17:15:19.084Z,98074.44
2022-10-01T17:17:46.389Z,98075.81
2022-10-01T17:20:13.765Z,98077.72
2022-10-01T17:22:42.827Z,98080.63
2022-10-01T17:25:16.362Z,98088.63
2022-10-01T17:27:43.099Z,98093.69
2022-10-01T17:30:10.413Z,98088.63
2022-10-01T17:32:39.914Z,98097.44
2022-10-01T17:35:07.377Z,98093.13
2022-10-01T17:37:34.553Z,98090.38
2022-10-01T17:40:01.352Z,98084.88
2022-10-01T17:42:27.991Z,98086.75
2022-10-01T17:44:54.905Z,98098.50
2022-10-01T17:47:21.530Z,98100.84
2022-10-01T17:49:48.154Z,98102.84
2022-10-01T17:52:15.195Z,98096.63
2022-10-01T17:54:41.797Z,98108.41
2022-10-01T17:57:10.877Z,98106.78
2022-10-01T17:59:38.225Z,98112.16
2022-10-01T18:02:23.670Z,98111.41
2022-10-01T18:04:53.978Z,98111.91
2022-10-01T18:07:20.656Z,98114.00
2022-10-01T18:09:47.299Z,98118.66
2022-10-01T18:12:14.463Z,98122.69
2022-10-01T18:14:41.160Z,98127.50
2022-10-01T18:17:07.814Z,98122.06
2022-10-01T18:22:21.497Z,98130.84
2022-10-01T18:24:48.163Z,98136.72
2022-10-01T18:27:15.205Z,98141.50
2022-10-01T18:29:41.875Z,98145.53
2022-10-01T18:32:15.916Z,98134.84
2022-10-01T18:34:46.119Z,98129.53
2022-10-01T18:37:24.489Z,98137.81
2022-10-01T18:40:21.625Z,98148.78
2022-10-01T18:43:04.483Z,98149.28
2022-10-01T18:46:01.613Z,98157.00
2022-10-01T18:48:54.035Z,98169.28
2022-10-01T18:51:53.556Z,98174.31
2022-10-01T18:54:37.502Z,98180.94
2022-10-01T18:57:28.533Z,98182.00
2022-10-01T19:00:18.104Z,98177.78
2022-10-01T19:03:01.173Z,98181.66
2022-10-01T19:05:47.725Z,98193.34
2022-10-01T19:08:46.668Z,98188.84
2022-10-01T19:11:17.660Z,98195.03
2022-10-01T19:13:52.790Z,98190.28
2022-10-01T19:16:47.787Z,98196.41
2022-10-01T19:19:44.943Z,98202.03
2022-10-01T19:22:26.296Z,98199.00
2022-10-01T19:25:16.607Z,98197.16
2022-10-01T19:27:58.665Z,98194.53
2022-10-01T19:30:27.293Z,98194.38
2022-10-01T19:32:59.908Z,98191.34
2022-10-01T19:35:33.739Z,98198.63
2022-10-01T19:38:10.909Z,98211.06
2022-10-01T19:40:48.456Z,98212.94
2022-10-01T19:43:22.859Z,98218.44
2022-10-01T19:45:56.440Z,98224.88
2022-10-01T19:48:29.839Z,98226.84
2022-10-01T19:51:06.787Z,98234.50
2022-10-01T19:53:37.430Z,98225.34
2022-10-01T19:56:05.151Z,98224.63
2022-10-01T19:58:32.819Z,98225.34
2022-10-01T20:01:04.036Z,98239.22
2022-10-01T20:03:35.120Z,98232.69
2022-10-01T20:06:05.808Z,98233.56
2022-10-01T20:08:41.802Z,98234.56
2022-10-01T20:11:14.332Z,98235.97
2022-10-01T20:13:56.704Z,98234.03
2022-10-01T20:16:30.245Z,98237.34
2022-10-01T20:19:27.263Z,98239.53
2022-10-01T20:22:14.847Z,98251.28
2022-10-01T20:24:56.082Z,98254.38
2022-10-01T20:27:37.810Z,98254.38
2022-10-01T20:30:10.562Z,98260.13
2022-10-01T20:32:52.487Z,98266.22
2022-10-01T20:35:32.902Z,98265.13
2022-10-01T20:38:06.998Z,98275.06
2022-10-01T20:40:49.748Z,98279.50
2022-10-01T20:43:22.899Z,98270.28
2022-10-01T20:45:55.791Z,98275.31
2022-10-01T20:48:27.292Z,98271.53
2022-10-01T20:51:01.505Z,98273.00
2022-10-01T20:53:30.240Z,98273.53
2022-10-01T20:56:04.366Z,98266.44
2022-10-01T20:58:35.190Z,98275.94
2022-10-01T21:01:10.068Z,98276.88
2022-10-01T21:03:42.522Z,98280.16
2022-10-01T21:06:16.381Z,98293.38
2022-10-01T21:08:48.847Z,98286.75
2022-10-01T21:11:27.619Z,98287.34
2022-10-01T21:14:04.498Z,98298.28
2022-10-01T21:16:38.243Z,98307.88
2022-10-01T21:19:37.679Z,98303.31
2022-10-01T21:22:19.543Z,98303.72
2022-10-01T21:25:03.448Z,98314.56
2022-10-01T21:27:57.815Z,98314.66
2022-10-01T21:30:24.634Z,98324.41
2022-10-01T21:33:13.446Z,98328.38
2022-10-01T21:35:56.290Z,98333.59
2022-10-01T21:38:28.344Z,98342.25
2022-10-01T21:41:09.625Z,98336.75
2022-10-01T21:44:10.885Z,98344.91
2022-10-01T21:46:58.109Z,98345.63
2022-10-01T21:49:45.659Z,98350.44
2022-10-01T21:52:41.719Z,98360.28
2022-10-01T21:55:19.534Z,98357.03
2022-10-01T21:58:16.676Z,98357.63
2022-10-01T22:00:57.769Z,98362.06
2022-10-01T22:03:34.977Z,98366.72
2022-10-01T22:06:23.752Z,98367.69
2022-10-01T22:09:04.349Z,98369.78
2022-10-01T22:11:37.210Z,98375.34
2022-10-01T22:14:13.893Z,98388.25
2022-10-01T22:17:00.717Z,98381.31
2022-10-01T22:19:29.757Z,98381.31
2022-10-01T22:22:05.612Z,98375.91
2022-10-01T22:24:39.662Z,98394.44
2022-10-01T22:27:11.405Z,98392.03
2022-10-01T22:29:44.515Z,98390.13
2022-10-01T22:32:17.285Z,98389.44
2022-10-01T22:34:54.334Z,98398.47
2022-10-01T22:37:28.625Z,98398.00
2022-10-01T22:40:05.095Z,98391.41
2022-10-01T22:42:37.268Z,98399.44
2022-10-01T22:45:13.797Z,98393.06
2022-10-01T22:47:41.372Z,98395.50
2022-10-01T22:50:18.236Z,98400.97
2022-10-01T22:53:07.259Z,98415.50
2022-10-01T22:55:49.295Z,98407.28
2022-10-01T22:58:46.424Z,98410.88
2022-10-01T23:01:27.879Z,98411.75
2022-10-01T23:04:10.538Z,98408.66
2022-10-01T23:07:01.789Z,98421.69
2022-10-01T23:09:39.024Z,98421.59
2022-10-01T23:12:30.550Z,98425.72
2022-10-01T23:15:17.779Z,98429.09
2022-10-01T23:18:02.964Z,98431.38
2022-10-01T23:20:37.430Z,98442.13
2022-10-01T23:23:19.260Z,98444.50
2022-10-01T23:26:16.350Z,98444.34
2022-10-01T23:28:54.173Z,98453.94
2022-10-01T23:31:40.365Z,98450.94
2022-10-01T23:34:23.286Z,98459.25
2022-10-01T23:37:04.301Z,98456.81
2022-10-01T23:39:37.718Z,98465.97
2022-10-01T23:42:13.938Z,98479.97
2022-10-01T23:44:50.113Z,98519.59
2022-10-01T23:47:24.035Z,98525.75
2022-10-01T23:49:55.962Z,98523.59
2022-10-01T23:52:37.073Z,98537.38
2022-10-01T23:55:29.318Z,98534.75
2022-10-01T23:58:03.145Z,98541.81
